sensor_id;sensor_type;location;lat;lon;timestamp;temperature;humidity
65245;DHT22;51846;48.692;2.382;2023-08-21T00:02:16;22.46;67.26
65245;DHT22;51846;48.692;2.382;2023-08-21T00:04:42;22.39;67.43
65245;DHT22;51846;48.692;2.382;2023-08-21T00:07:07;22.37;67.64
65245;DHT22;51846;48.692;2.382;2023-08-21T00:09:34;22.33;67.51
65245;DHT22;51846;48.692;2.382;2023-08-21T00:12:00;22.29;67.80
65245;DHT22;51846;48.692;2.382;2023-08-21T00:14:26;22.19;68.03
65245;DHT22;51846;48.692;2.382;2023-08-21T00:16:51;22.23;67.64
65245;DHT22;51846;48.692;2.382;2023-08-21T00:19:16;22.23;67.72
65245;DHT22;51846;48.692;2.382;2023-08-21T00:21:42;22.23;67.70
65245;DHT22;51846;48.692;2.382;2023-08-21T00:24:07;22.22;67.92
65245;DHT22;51846;48.692;2.382;2023-08-21T00:26:32;22.17;67.95
65245;DHT22;51846;48.692;2.382;2023-08-21T00:28:58;22.20;67.83
65245;DHT22;51846;48.692;2.382;2023-08-21T00:31:23;22.19;68.00
65245;DHT22;51846;48.692;2.382;2023-08-21T00:33:48;22.17;67.76
65245;DHT22;51846;48.692;2.382;2023-08-21T00:36:14;22.16;67.65
65245;DHT22;51846;48.692;2.382;2023-08-21T00:38:39;22.12;67.80
65245;DHT22;51846;48.692;2.382;2023-08-21T00:41:05;22.12;67.73
65245;DHT22;51846;48.692;2.382;2023-08-21T00:43:31;22.13;67.57
65245;DHT22;51846;48.692;2.382;2023-08-21T00:45:56;22.10;67.64
65245;DHT22;51846;48.692;2.382;2023-08-21T00:48:22;22.12;67.47
65245;DHT22;51846;48.692;2.382;2023-08-21T00:50:47;22.06;67.63
65245;DHT22;51846;48.692;2.382;2023-08-21T00:53:13;22.06;67.54
65245;DHT22;51846;48.692;2.382;2023-08-21T00:55:38;22.02;67.74
65245;DHT22;51846;48.692;2.382;2023-08-21T00:58:05;21.99;68.18
65245;DHT22;51846;48.692;2.382;2023-08-21T01:00:31;21.99;67.99
65245;DHT22;51846;48.692;2.382;2023-08-21T01:02:56;21.91;67.93
65245;DHT22;51846;48.692;2.382;2023-08-21T01:05:22;21.95;67.87
65245;DHT22;51846;48.692;2.382;2023-08-21T01:08:01;21.78;67.96
65245;DHT22;51846;48.692;2.382;2023-08-21T01:13:34;21.83;67.76
65245;DHT22;51846;48.692;2.382;2023-08-21T01:16:03;21.81;67.65
65245;DHT22;51846;48.692;2.382;2023-08-21T01:18:30;21.81;67.55
65245;DHT22;51846;48.692;2.382;2023-08-21T01:20:56;21.79;67.68
65245;DHT22;51846;48.692;2.382;2023-08-21T01:25:54;21.75;67.63
65245;DHT22;51846;48.692;2.382;2023-08-21T01:28:22;21.71;67.83
65245;DHT22;51846;48.692;2.382;2023-08-21T01:30:50;21.68;67.61
65245;DHT22;51846;48.692;2.382;2023-08-21T01:33:18;21.63;67.86
65245;DHT22;51846;48.692;2.382;2023-08-21T01:35:44;21.58;67.59
65245;DHT22;51846;48.692;2.382;2023-08-21T01:38:10;21.58;67.48
65245;DHT22;51846;48.692;2.382;2023-08-21T01:40:35;21.52;67.95
65245;DHT22;51846;48.692;2.382;2023-08-21T01:43:01;21.51;67.09
65245;DHT22;51846;48.692;2.382;2023-08-21T01:45:26;21.49;67.10
65245;DHT22;51846;48.692;2.382;2023-08-21T01:48:00;21.47;66.85
65245;DHT22;51846;48.692;2.382;2023-08-21T01:50:28;21.44;67.15
65245;DHT22;51846;48.692;2.382;2023-08-21T01:52:54;21.41;66.75
65245;DHT22;51846;48.692;2.382;2023-08-21T01:55:19;21.37;66.99
65245;DHT22;51846;48.692;2.382;2023-08-21T01:57:44;21.37;66.70
65245;DHT22;51846;48.692;2.382;2023-08-21T02:00:10;21.34;66.47
65245;DHT22;51846;48.692;2.382;2023-08-21T02:02:37;21.28;66.63
65245;DHT22;51846;48.692;2.382;2023-08-21T02:05:02;21.28;66.35
65245;DHT22;51846;48.692;2.382;2023-08-21T02:07:28;21.24;66.59
65245;DHT22;51846;48.692;2.382;2023-08-21T02:09:54;21.20;66.57
65245;DHT22;51846;48.692;2.382;2023-08-21T02:12:19;21.18;66.86
65245;DHT22;51846;48.692;2.382;2023-08-21T02:14:44;21.18;66.94
65245;DHT22;51846;48.692;2.382;2023-08-21T02:17:10;21.15;66.94
65245;DHT22;51846;48.692;2.382;2023-08-21T02:19:35;21.15;66.61
65245;DHT22;51846;48.692;2.382;2023-08-21T02:22:00;21.15;67.31
65245;DHT22;51846;48.692;2.382;2023-08-21T02:24:26;21.17;67.09
65245;DHT22;51846;48.692;2.382;2023-08-21T02:26:51;21.15;66.87
65245;DHT22;51846;48.692;2.382;2023-08-21T02:29:16;21.04;67.38
65245;DHT22;51846;48.692;2.382;2023-08-21T02:31:42;21.01;67.43
65245;DHT22;51846;48.692;2.382;2023-08-21T02:34:07;20.94;67.36
65245;DHT22;51846;48.692;2.382;2023-08-21T02:36:32;20.98;67.48
65245;DHT22;51846;48.692;2.382;2023-08-21T02:38:58;20.98;67.65
65245;DHT22;51846;48.692;2.382;2023-08-21T02:41:23;21.01;68.06
65245;DHT22;51846;48.692;2.382;2023-08-21T02:43:49;21.01;67.66
65245;DHT22;51846;48.692;2.382;2023-08-21T02:46:14;21.03;67.53
65245;DHT22;51846;48.692;2.382;2023-08-21T02:48:40;21.03;67.84
65245;DHT22;51846;48.692;2.382;2023-08-21T02:51:05;21.03;67.66
65245;DHT22;51846;48.692;2.382;2023-08-21T02:53:31;21.01;67.88
65245;DHT22;51846;48.692;2.382;2023-08-21T02:55:56;21.03;67.75
65245;DHT22;51846;48.692;2.382;2023-08-21T02:58:21;20.96;67.62
65245;DHT22;51846;48.692;2.382;2023-08-21T03:00:47;20.83;67.79
65245;DHT22;51846;48.692;2.382;2023-08-21T03:03:12;20.88;67.89
65245;DHT22;51846;48.692;2.382;2023-08-21T03:05:37;20.90;67.99
65245;DHT22;51846;48.692;2.382;2023-08-21T03:08:03;20.90;68.34
65245;DHT22;51846;48.692;2.382;2023-08-21T03:10:28;20.90;68.67
65245;DHT22;51846;48.692;2.382;2023-08-21T03:12:58;20.87;68.70
65245;DHT22;51846;48.692;2.382;2023-08-21T03:15:23;20.88;68.82
65245;DHT22;51846;48.692;2.382;2023-08-21T03:17:49;20.84;69.04
65245;DHT22;51846;48.692;2.382;2023-08-21T03:20:14;20.86;68.93
65245;DHT22;51846;48.692;2.382;2023-08-21T03:22:40;20.84;68.68
65245;DHT22;51846;48.692;2.382;2023-08-21T03:25:06;20.84;68.74
65245;DHT22;51846;48.692;2.382;2023-08-21T03:27:31;20.76;69.06
65245;DHT22;51846;48.692;2.382;2023-08-21T03:29:57;20.76;69.03
65245;DHT22;51846;48.692;2.382;2023-08-21T03:32:26;20.73;69.12
65245;DHT22;51846;48.692;2.382;2023-08-21T03:34:51;20.74;69.12
65245;DHT22;51846;48.692;2.382;2023-08-21T03:37:16;20.74;69.20
65245;DHT22;51846;48.692;2.382;2023-08-21T03:39:41;20.74;69.04
65245;DHT22;51846;48.692;2.382;2023-08-21T03:42:07;20.76;69.18
65245;DHT22;51846;48.692;2.382;2023-08-21T03:44:32;20.73;69.22
65245;DHT22;51846;48.692;2.382;2023-08-21T03:46:58;20.73;69.39
65245;DHT22;51846;48.692;2.382;2023-08-21T03:49:24;20.72;69.54
65245;DHT22;51846;48.692;2.382;2023-08-21T03:51:49;20.72;69.51
65245;DHT22;51846;48.692;2.382;2023-08-21T03:54:14;20.72;69.61
65245;DHT22;51846;48.692;2.382;2023-08-21T03:56:40;20.70;70.12
65245;DHT22;51846;48.692;2.382;2023-08-21T03:59:05;20.66;70.26
65245;DHT22;51846;48.692;2.382;2023-08-21T04:01:30;20.62;70.07
65245;DHT22;51846;48.692;2.382;2023-08-21T04:03:56;20.57;69.97
65245;DHT22;51846;48.692;2.382;2023-08-21T04:06:21;20.57;70.41
65245;DHT22;51846;48.692;2.382;2023-08-21T04:08:46;20.53;70.28
65245;DHT22;51846;48.692;2.382;2023-08-21T04:11:15;20.50;70.38
65245;DHT22;51846;48.692;2.382;2023-08-21T04:13:41;20.46;70.64
65245;DHT22;51846;48.692;2.382;2023-08-21T04:16:06;20.47;71.01
65245;DHT22;51846;48.692;2.382;2023-08-21T04:18:31;20.42;70.48
65245;DHT22;51846;48.692;2.382;2023-08-21T04:20:57;20.37;70.63
65245;DHT22;51846;48.692;2.382;2023-08-21T04:23:22;20.32;70.66
65245;DHT22;51846;48.692;2.382;2023-08-21T04:25:47;20.29;70.85
65245;DHT22;51846;48.692;2.382;2023-08-21T04:28:13;20.29;70.94
65245;DHT22;51846;48.692;2.382;2023-08-21T04:30:42;20.23;71.08
65245;DHT22;51846;48.692;2.382;2023-08-21T04:33:08;20.28;71.44
65245;DHT22;51846;48.692;2.382;2023-08-21T04:35:37;20.26;70.92
65245;DHT22;51846;48.692;2.382;2023-08-21T04:38:03;20.26;70.78
65245;DHT22;51846;48.692;2.382;2023-08-21T04:40:28;20.26;70.72
65245;DHT22;51846;48.692;2.382;2023-08-21T04:42:53;20.28;70.76
65245;DHT22;51846;48.692;2.382;2023-08-21T04:45:19;20.26;70.91
65245;DHT22;51846;48.692;2.382;2023-08-21T04:47:44;20.26;70.63
65245;DHT22;51846;48.692;2.382;2023-08-21T04:50:09;20.28;70.42
65245;DHT22;51846;48.692;2.382;2023-08-21T04:52:35;20.26;70.53
65245;DHT22;51846;48.692;2.382;2023-08-21T04:55:00;20.23;70.51
65245;DHT22;51846;48.692;2.382;2023-08-21T04:57:25;20.18;70.81
65245;DHT22;51846;48.692;2.382;2023-08-21T04:59:51;20.15;70.85
65245;DHT22;51846;48.692;2.382;2023-08-21T05:02:16;20.15;70.83
65245;DHT22;51846;48.692;2.382;2023-08-21T05:04:41;20.13;70.68
65245;DHT22;51846;48.692;2.382;2023-08-21T05:07:07;20.12;70.41
65245;DHT22;51846;48.692;2.382;2023-08-21T05:09:32;20.09;70.65
65245;DHT22;51846;48.692;2.382;2023-08-21T05:11:58;20.08;70.58
65245;DHT22;51846;48.692;2.382;2023-08-21T05:14:23;20.08;70.61
65245;DHT22;51846;48.692;2.382;2023-08-21T05:16:49;20.06;70.55
65245;DHT22;51846;48.692;2.382;2023-08-21T05:19:15;20.13;70.27
65245;DHT22;51846;48.692;2.382;2023-08-21T05:21:40;20.15;70.34
65245;DHT22;51846;48.692;2.382;2023-08-21T05:24:06;20.13;70.76
65245;DHT22;51846;48.692;2.382;2023-08-21T05:26:32;20.12;70.33
65245;DHT22;51846;48.692;2.382;2023-08-21T05:28:57;20.18;70.34
65245;DHT22;51846;48.692;2.382;2023-08-21T05:31:22;20.18;69.89
65245;DHT22;51846;48.692;2.382;2023-08-21T05:33:48;20.18;70.01
65245;DHT22;51846;48.692;2.382;2023-08-21T05:36:13;20.25;69.99
65245;DHT22;51846;48.692;2.382;2023-08-21T05:38:39;20.22;70.14
65245;DHT22;51846;48.692;2.382;2023-08-21T05:41:04;20.26;69.79
65245;DHT22;51846;48.692;2.382;2023-08-21T05:43:30;20.28;69.24
65245;DHT22;51846;48.692;2.382;2023-08-21T05:45:55;20.29;69.67
65245;DHT22;51846;48.692;2.382;2023-08-21T05:48:21;20.30;69.34
65245;DHT22;51846;48.692;2.382;2023-08-21T05:50:53;20.33;69.61
65245;DHT22;51846;48.692;2.382;2023-08-21T05:53:19;20.29;69.67
65245;DHT22;51846;48.692;2.382;2023-08-21T05:55:44;20.36;69.80
65245;DHT22;51846;48.692;2.382;2023-08-21T05:58:09;20.33;70.59
65245;DHT22;51846;48.692;2.382;2023-08-21T06:00:35;20.36;69.59
65245;DHT22;51846;48.692;2.382;2023-08-21T06:03:01;20.39;69.49
65245;DHT22;51846;48.692;2.382;2023-08-21T06:05:26;20.40;69.65
65245;DHT22;51846;48.692;2.382;2023-08-21T06:07:51;20.44;69.56
65245;DHT22;51846;48.692;2.382;2023-08-21T06:10:17;20.42;69.83
65245;DHT22;51846;48.692;2.382;2023-08-21T06:12:43;20.46;69.16
65245;DHT22;51846;48.692;2.382;2023-08-21T06:15:08;20.52;68.57
65245;DHT22;51846;48.692;2.382;2023-08-21T06:17:34;20.53;68.32
65245;DHT22;51846;48.692;2.382;2023-08-21T06:20:00;20.54;67.74
65245;DHT22;51846;48.692;2.382;2023-08-21T06:22:25;20.53;68.11
65245;DHT22;51846;48.692;2.382;2023-08-21T06:24:51;20.57;67.79
65245;DHT22;51846;48.692;2.382;2023-08-21T06:27:16;20.56;68.37
65245;DHT22;51846;48.692;2.382;2023-08-21T06:29:41;20.59;67.42
65245;DHT22;51846;48.692;2.382;2023-08-21T06:32:07;20.66;66.84
65245;DHT22;51846;48.692;2.382;2023-08-21T06:34:32;20.64;67.53
65245;DHT22;51846;48.692;2.382;2023-08-21T06:36:58;20.72;66.71
65245;DHT22;51846;48.692;2.382;2023-08-21T06:39:23;20.76;66.76
65245;DHT22;51846;48.692;2.382;2023-08-21T06:41:48;20.77;67.10
65245;DHT22;51846;48.692;2.382;2023-08-21T06:44:14;20.83;66.99
65245;DHT22;51846;48.692;2.382;2023-08-21T06:46:39;20.88;66.56
65245;DHT22;51846;48.692;2.382;2023-08-21T06:49:04;20.93;66.63
65245;DHT22;51846;48.692;2.382;2023-08-21T06:51:30;20.96;66.55
65245;DHT22;51846;48.692;2.382;2023-08-21T06:53:55;21.00;66.79
65245;DHT22;51846;48.692;2.382;2023-08-21T06:56:20;21.03;66.39
65245;DHT22;51846;48.692;2.382;2023-08-21T06:58:46;21.12;66.05
65245;DHT22;51846;48.692;2.382;2023-08-21T07:01:11;21.23;65.51
65245;DHT22;51846;48.692;2.382;2023-08-21T07:03:37;21.28;65.20
65245;DHT22;51846;48.692;2.382;2023-08-21T07:06:02;21.30;65.70
65245;DHT22;51846;48.692;2.382;2023-08-21T07:08:28;21.35;65.01
65245;DHT22;51846;48.692;2.382;2023-08-21T07:10:54;21.38;64.71
65245;DHT22;51846;48.692;2.382;2023-08-21T07:13:19;21.38;64.13
65245;DHT22;51846;48.692;2.382;2023-08-21T07:15:46;21.45;63.74
65245;DHT22;51846;48.692;2.382;2023-08-21T07:18:11;21.44;63.72
65245;DHT22;51846;48.692;2.382;2023-08-21T07:20:36;21.49;64.24
65245;DHT22;51846;48.692;2.382;2023-08-21T07:23:03;21.59;64.03
65245;DHT22;51846;48.692;2.382;2023-08-21T07:25:28;21.61;63.95
65245;DHT22;51846;48.692;2.382;2023-08-21T07:27:54;21.59;63.94
65245;DHT22;51846;48.692;2.382;2023-08-21T07:30:20;21.61;63.92
65245;DHT22;51846;48.692;2.382;2023-08-21T07:32:46;21.68;62.59
65245;DHT22;51846;48.692;2.382;2023-08-21T07:35:11;21.74;62.95
65245;DHT22;51846;48.692;2.382;2023-08-21T07:37:37;21.79;62.48
65245;DHT22;51846;48.692;2.382;2023-08-21T07:40:04;21.79;61.98
65245;DHT22;51846;48.692;2.382;2023-08-21T07:42:30;21.85;62.53
65245;DHT22;51846;48.692;2.382;2023-08-21T07:44:55;21.92;62.43
65245;DHT22;51846;48.692;2.382;2023-08-21T07:47:21;21.95;62.70
65245;DHT22;51846;48.692;2.382;2023-08-21T07:49:46;21.98;63.33
65245;DHT22;51846;48.692;2.382;2023-08-21T07:52:11;21.99;62.92
65245;DHT22;51846;48.692;2.382;2023-08-21T07:54:37;22.01;63.15
65245;DHT22;51846;48.692;2.382;2023-08-21T07:57:02;22.06;62.37
65245;DHT22;51846;48.692;2.382;2023-08-21T07:59:29;22.06;63.24
65245;DHT22;51846;48.692;2.382;2023-08-21T08:01:54;22.19;62.55
65245;DHT22;51846;48.692;2.382;2023-08-21T08:04:19;22.24;62.50
65245;DHT22;51846;48.692;2.382;2023-08-21T08:06:45;22.33;62.55
65245;DHT22;51846;48.692;2.382;2023-08-21T08:09:11;22.30;62.37
65245;DHT22;51846;48.692;2.382;2023-08-21T08:11:36;22.24;62.59
65245;DHT22;51846;48.692;2.382;2023-08-21T08:14:01;22.32;62.54
65245;DHT22;51846;48.692;2.382;2023-08-21T08:16:27;22.36;62.62
65245;DHT22;51846;48.692;2.382;2023-08-21T08:18:52;22.43;62.92
65245;DHT22;51846;48.692;2.382;2023-08-21T08:21:17;22.46;62.36
65245;DHT22;51846;48.692;2.382;2023-08-21T08:23:43;22.53;62.29
65245;DHT22;51846;48.692;2.382;2023-08-21T08:26:08;22.53;62.73
65245;DHT22;51846;48.692;2.382;2023-08-21T08:28:34;22.54;63.02
65245;DHT22;51846;48.692;2.382;2023-08-21T08:30:59;22.61;63.04
65245;DHT22;51846;48.692;2.382;2023-08-21T08:33:25;22.68;61.84
65245;DHT22;51846;48.692;2.382;2023-08-21T08:35:51;22.73;62.40
65245;DHT22;51846;48.692;2.382;2023-08-21T08:38:18;22.76;61.59
65245;DHT22;51846;48.692;2.382;2023-08-21T08:40:46;22.73;61.70
65245;DHT22;51846;48.692;2.382;2023-08-21T08:43:12;22.87;61.61
65245;DHT22;51846;48.692;2.382;2023-08-21T08:45:40;22.98;60.80
65245;DHT22;51846;48.692;2.382;2023-08-21T08:48:06;23.04;60.92
65245;DHT22;51846;48.692;2.382;2023-08-21T08:50:32;23.04;60.62
65245;DHT22;51846;48.692;2.382;2023-08-21T08:52:59;23.11;61.68
65245;DHT22;51846;48.692;2.382;2023-08-21T08:55:25;23.15;61.18
65245;DHT22;51846;48.692;2.382;2023-08-21T08:57:51;23.15;62.77
65245;DHT22;51846;48.692;2.382;2023-08-21T09:00:17;23.18;61.52
65245;DHT22;51846;48.692;2.382;2023-08-21T09:02:42;23.32;61.16
65245;DHT22;51846;48.692;2.382;2023-08-21T09:05:08;23.42;60.91
65245;DHT22;51846;48.692;2.382;2023-08-21T09:07:34;23.38;61.72
65245;DHT22;51846;48.692;2.382;2023-08-21T09:10:00;23.52;60.71
65245;DHT22;51846;48.692;2.382;2023-08-21T09:12:25;23.55;60.21
65245;DHT22;51846;48.692;2.382;2023-08-21T09:14:51;23.72;60.43
65245;DHT22;51846;48.692;2.382;2023-08-21T09:17:16;23.66;60.72
65245;DHT22;51846;48.692;2.382;2023-08-21T09:19:43;23.68;60.40
65245;DHT22;51846;48.692;2.382;2023-08-21T09:22:14;23.79;61.17
65245;DHT22;51846;48.692;2.382;2023-08-21T09:24:40;23.83;59.69
65245;DHT22;51846;48.692;2.382;2023-08-21T09:27:17;23.93;59.19
65245;DHT22;51846;48.692;2.382;2023-08-21T09:29:46;23.96;60.67
65245;DHT22;51846;48.692;2.382;2023-08-21T09:32:11;24.01;59.69
65245;DHT22;51846;48.692;2.382;2023-08-21T09:34:37;24.01;59.00
65245;DHT22;51846;48.692;2.382;2023-08-21T09:37:08;24.08;60.02
65245;DHT22;51846;48.692;2.382;2023-08-21T09:39:35;24.17;59.65
65245;DHT22;51846;48.692;2.382;2023-08-21T09:42:10;24.13;59.36
65245;DHT22;51846;48.692;2.382;2023-08-21T09:44:39;24.33;59.23
65245;DHT22;51846;48.692;2.382;2023-08-21T09:47:10;24.46;59.00
65245;DHT22;51846;48.692;2.382;2023-08-21T09:49:36;24.55;58.79
65245;DHT22;51846;48.692;2.382;2023-08-21T09:52:08;24.59;58.33
65245;DHT22;51846;48.692;2.382;2023-08-21T09:54:35;24.57;58.23
65245;DHT22;51846;48.692;2.382;2023-08-21T09:57:02;24.61;59.27
65245;DHT22;51846;48.692;2.382;2023-08-21T09:59:29;24.74;58.68
65245;DHT22;51846;48.692;2.382;2023-08-21T10:01:56;24.88;57.93
65245;DHT22;51846;48.692;2.382;2023-08-21T10:04:22;24.91;58.49
65245;DHT22;51846;48.692;2.382;2023-08-21T10:06:51;24.90;59.26
65245;DHT22;51846;48.692;2.382;2023-08-21T10:09:17;24.95;58.57
65245;DHT22;51846;48.692;2.382;2023-08-21T10:11:43;24.95;57.38
65245;DHT22;51846;48.692;2.382;2023-08-21T10:14:09;24.98;57.78
65245;DHT22;51846;48.692;2.382;2023-08-21T10:16:35;25.03;57.66
65245;DHT22;51846;48.692;2.382;2023-08-21T10:19:04;25.11;57.98
65245;DHT22;51846;48.692;2.382;2023-08-21T10:21:37;25.06;58.21
65245;DHT22;51846;48.692;2.382;2023-08-21T10:24:02;25.22;57.83
65245;DHT22;51846;48.692;2.382;2023-08-21T10:26:28;25.24;56.17
65245;DHT22;51846;48.692;2.382;2023-08-21T10:28:56;25.30;57.18
65245;DHT22;51846;48.692;2.382;2023-08-21T10:31:35;25.42;57.17
65245;DHT22;51846;48.692;2.382;2023-08-21T10:34:13;25.46;56.36
65245;DHT22;51846;48.692;2.382;2023-08-21T10:39:21;25.72;55.83
65245;DHT22;51846;48.692;2.382;2023-08-21T10:41:57;25.82;55.17
65245;DHT22;51846;48.692;2.382;2023-08-21T10:44:35;25.89;55.33
65245;DHT22;51846;48.692;2.382;2023-08-21T10:47:18;25.85;56.59
65245;DHT22;51846;48.692;2.382;2023-08-21T10:49:56;25.83;55.99
65245;DHT22;51846;48.692;2.382;2023-08-21T10:52:35;26.02;56.62
65245;DHT22;51846;48.692;2.382;2023-08-21T10:55:02;26.05;55.89
65245;DHT22;51846;48.692;2.382;2023-08-21T10:57:31;26.23;54.53
65245;DHT22;51846;48.692;2.382;2023-08-21T11:02:36;26.36;54.55
65245;DHT22;51846;48.692;2.382;2023-08-21T11:05:02;26.25;53.90
65245;DHT22;51846;48.692;2.382;2023-08-21T11:07:30;26.46;53.83
65245;DHT22;51846;48.692;2.382;2023-08-21T11:09:56;26.46;53.65
65245;DHT22;51846;48.692;2.382;2023-08-21T11:12:23;26.56;55.97
65245;DHT22;51846;48.692;2.382;2023-08-21T11:14:50;26.50;54.29
65245;DHT22;51846;48.692;2.382;2023-08-21T11:17:18;26.57;54.59
65245;DHT22;51846;48.692;2.382;2023-08-21T11:19:44;26.74;52.92
65245;DHT22;51846;48.692;2.382;2023-08-21T11:22:11;26.80;52.65
65245;DHT22;51846;48.692;2.382;2023-08-21T11:27:02;26.92;52.51
65245;DHT22;51846;48.692;2.382;2023-08-21T11:29:35;27.05;52.86
65245;DHT22;51846;48.692;2.382;2023-08-21T11:32:02;27.07;54.17
65245;DHT22;51846;48.692;2.382;2023-08-21T11:34:28;27.14;51.67
65245;DHT22;51846;48.692;2.382;2023-08-21T11:36:54;27.12;51.95
65245;DHT22;51846;48.692;2.382;2023-08-21T11:39:19;27.08;51.58
65245;DHT22;51846;48.692;2.382;2023-08-21T11:41:57;27.24;51.65
65245;DHT22;51846;48.692;2.382;2023-08-21T11:44:22;27.45;51.28
65245;DHT22;51846;48.692;2.382;2023-08-21T11:46:51;27.49;50.00
65245;DHT22;51846;48.692;2.382;2023-08-21T11:49:17;27.59;52.01
65245;DHT22;51846;48.692;2.382;2023-08-21T11:51:45;27.67;50.23
65245;DHT22;51846;48.692;2.382;2023-08-21T11:54:10;27.62;50.06
65245;DHT22;51846;48.692;2.382;2023-08-21T11:56:35;27.78;50.09
65245;DHT22;51846;48.692;2.382;2023-08-21T11:59:04;27.83;47.82
65245;DHT22;51846;48.692;2.382;2023-08-21T12:01:32;27.90;50.07
65245;DHT22;51846;48.692;2.382;2023-08-21T12:03:58;27.88;49.02
65245;DHT22;51846;48.692;2.382;2023-08-21T12:06:23;27.76;50.65
65245;DHT22;51846;48.692;2.382;2023-08-21T12:08:50;27.62;50.02
65245;DHT22;51846;48.692;2.382;2023-08-21T12:11:15;27.61;49.95
65245;DHT22;51846;48.692;2.382;2023-08-21T12:13:41;27.73;49.38
65245;DHT22;51846;48.692;2.382;2023-08-21T12:16:06;27.81;49.39
65245;DHT22;51846;48.692;2.382;2023-08-21T12:18:31;27.86;48.81
65245;DHT22;51846;48.692;2.382;2023-08-21T12:20:57;27.86;48.09
65245;DHT22;51846;48.692;2.382;2023-08-21T12:23:22;27.70;52.21
65245;DHT22;51846;48.692;2.382;2023-08-21T12:25:48;27.76;49.93
65245;DHT22;51846;48.692;2.382;2023-08-21T12:28:13;27.65;50.23
65245;DHT22;51846;48.692;2.382;2023-08-21T12:30:38;27.78;49.23
65245;DHT22;51846;48.692;2.382;2023-08-21T12:33:04;27.82;49.97
65245;DHT22;51846;48.692;2.382;2023-08-21T12:35:29;27.70;50.56
65245;DHT22;51846;48.692;2.382;2023-08-21T12:37:57;27.75;49.64
65245;DHT22;51846;48.692;2.382;2023-08-21T12:40:22;27.85;51.82
65245;DHT22;51846;48.692;2.382;2023-08-21T12:42:47;27.90;48.64
65245;DHT22;51846;48.692;2.382;2023-08-21T12:45:13;27.93;48.98
65245;DHT22;51846;48.692;2.382;2023-08-21T12:47:38;27.99;48.68
65245;DHT22;51846;48.692;2.382;2023-08-21T12:50:05;27.93;48.64
65245;DHT22;51846;48.692;2.382;2023-08-21T12:52:30;27.92;48.84
65245;DHT22;51846;48.692;2.382;2023-08-21T12:54:56;27.89;49.16
65245;DHT22;51846;48.692;2.382;2023-08-21T12:57:21;27.82;51.05
65245;DHT22;51846;48.692;2.382;2023-08-21T12:59:47;27.67;48.94
65245;DHT22;51846;48.692;2.382;2023-08-21T13:02:12;27.61;49.58
65245;DHT22;51846;48.692;2.382;2023-08-21T13:04:37;27.65;48.86
65245;DHT22;51846;48.692;2.382;2023-08-21T13:07:03;27.61;49.56
65245;DHT22;51846;48.692;2.382;2023-08-21T13:09:28;27.86;48.97
65245;DHT22;51846;48.692;2.382;2023-08-21T13:11:54;27.99;49.25
65245;DHT22;51846;48.692;2.382;2023-08-21T13:14:20;27.89;49.07
65245;DHT22;51846;48.692;2.382;2023-08-21T13:16:45;27.82;49.61
65245;DHT22;51846;48.692;2.382;2023-08-21T13:19:11;28.05;48.64
65245;DHT22;51846;48.692;2.382;2023-08-21T13:21:36;28.12;50.10
65245;DHT22;51846;48.692;2.382;2023-08-21T13:24:02;28.13;48.18
65245;DHT22;51846;48.692;2.382;2023-08-21T13:26:28;27.97;48.62
65245;DHT22;51846;48.692;2.382;2023-08-21T13:28:55;27.88;48.29
65245;DHT22;51846;48.692;2.382;2023-08-21T13:31:20;27.78;48.35
65245;DHT22;51846;48.692;2.382;2023-08-21T13:33:50;27.76;48.44
65245;DHT22;51846;48.692;2.382;2023-08-21T13:36:15;27.72;47.92
65245;DHT22;51846;48.692;2.382;2023-08-21T13:38:42;27.75;50.03
65245;DHT22;51846;48.692;2.382;2023-08-21T13:41:07;27.83;49.38
65245;DHT22;51846;48.692;2.382;2023-08-21T13:43:34;27.97;50.40
65245;DHT22;51846;48.692;2.382;2023-08-21T13:46:02;28.05;47.62
65245;DHT22;51846;48.692;2.382;2023-08-21T13:48:31;28.03;48.82
65245;DHT22;51846;48.692;2.382;2023-08-21T13:50:57;28.09;47.33
65245;DHT22;51846;48.692;2.382;2023-08-21T13:53:22;28.12;48.32
65245;DHT22;51846;48.692;2.382;2023-08-21T13:55:49;28.14;49.00
65245;DHT22;51846;48.692;2.382;2023-08-21T13:58:14;28.21;47.85
65245;DHT22;51846;48.692;2.382;2023-08-21T14:00:40;28.20;50.84
65245;DHT22;51846;48.692;2.382;2023-08-21T14:03:05;28.16;49.38
65245;DHT22;51846;48.692;2.382;2023-08-21T14:05:30;28.03;48.33
65245;DHT22;51846;48.692;2.382;2023-08-21T14:07:57;27.85;48.80
65245;DHT22;51846;48.692;2.382;2023-08-21T14:10:23;27.85;48.92
65245;DHT22;51846;48.692;2.382;2023-08-21T14:12:48;27.85;49.64
65245;DHT22;51846;48.692;2.382;2023-08-21T14:15:14;27.92;47.77
65245;DHT22;51846;48.692;2.382;2023-08-21T14:17:39;27.92;49.65
65245;DHT22;51846;48.692;2.382;2023-08-21T14:20:05;27.89;48.00
65245;DHT22;51846;48.692;2.382;2023-08-21T14:22:32;27.88;48.55
65245;DHT22;51846;48.692;2.382;2023-08-21T14:24:58;27.85;48.59
65245;DHT22;51846;48.692;2.382;2023-08-21T14:27:23;27.85;48.25
65245;DHT22;51846;48.692;2.382;2023-08-21T14:29:48;27.88;48.95
65245;DHT22;51846;48.692;2.382;2023-08-21T14:32:14;28.02;48.34
65245;DHT22;51846;48.692;2.382;2023-08-21T14:34:40;28.02;50.00
65245;DHT22;51846;48.692;2.382;2023-08-21T14:37:05;28.00;48.07
65245;DHT22;51846;48.692;2.382;2023-08-21T14:39:31;28.02;48.12
65245;DHT22;51846;48.692;2.382;2023-08-21T14:41:57;27.93;49.00
65245;DHT22;51846;48.692;2.382;2023-08-21T14:44:23;28.13;48.12
65245;DHT22;51846;48.692;2.382;2023-08-21T14:46:48;28.06;48.42
65245;DHT22;51846;48.692;2.382;2023-08-21T14:49:14;28.12;48.59
65245;DHT22;51846;48.692;2.382;2023-08-21T14:51:39;28.06;47.87
65245;DHT22;51846;48.692;2.382;2023-08-21T14:54:05;28.06;48.92
65245;DHT22;51846;48.692;2.382;2023-08-21T14:56:30;28.07;48.56
65245;DHT22;51846;48.692;2.382;2023-08-21T14:58:55;28.07;48.49
65245;DHT22;51846;48.692;2.382;2023-08-21T15:01:21;28.16;49.24
65245;DHT22;51846;48.692;2.382;2023-08-21T15:03:46;28.41;47.56
65245;DHT22;51846;48.692;2.382;2023-08-21T15:06:11;28.68;46.30
65245;DHT22;51846;48.692;2.382;2023-08-21T15:08:38;28.61;48.09
65245;DHT22;51846;48.692;2.382;2023-08-21T15:11:07;28.56;47.65
65245;DHT22;51846;48.692;2.382;2023-08-21T15:13:32;28.56;47.33
65245;DHT22;51846;48.692;2.382;2023-08-21T15:15:57;28.64;48.28
65245;DHT22;51846;48.692;2.382;2023-08-21T15:18:23;29.10;46.85
65245;DHT22;51846;48.692;2.382;2023-08-21T15:20:48;29.04;46.27
65245;DHT22;51846;48.692;2.382;2023-08-21T15:23:13;28.90;47.36
65245;DHT22;51846;48.692;2.382;2023-08-21T15:25:39;28.81;46.98
65245;DHT22;51846;48.692;2.382;2023-08-21T15:28:05;28.77;46.63
65245;DHT22;51846;48.692;2.382;2023-08-21T15:30:31;28.58;47.79
65245;DHT22;51846;48.692;2.382;2023-08-21T15:32:57;28.64;46.51
65245;DHT22;51846;48.692;2.382;2023-08-21T15:35:22;28.60;48.00
65245;DHT22;51846;48.692;2.382;2023-08-21T15:37:47;28.41;47.21